Time;durP1;ratioP1;P1;durP2;ratioP2;P2;SDS_P1;SDS_P2;PMS_P1;PMS_P2;Temp;Humidity;BMP_temperature;BMP_pressure;BME280_temperature;BME280_humidity;BME280_pressure;Samples;Min_cycle;Max_cycle;Signal;HPM_P1;HPM_P2
2022/08/02 00:00:32;;;;;;;3.53;2.20;;;19.10;99.90;;;;;;4978604;28;20723;-65
2022/08/02 00:02:59;;;;;;;4.57;1.40;;;19.10;99.90;;;;;;4971899;28;20081;-65
2022/08/02 00:05:26;;;;;;;1.92;1.65;;;19.10;99.90;;;;;;4969894;28;20054;-72
2022/08/02 00:07:53;;;;;;;4.68;1.80;;;19.10;99.90;;;;;;4966508;28;20059;-68
2022/08/02 00:10:20;;;;;;;2.08;1.88;;;19.10;99.90;;;;;;4969563;28;20066;-66
2022/08/02 00:12:47;;;;;;;4.07;1.60;;;19.10;99.90;;;;;;4975282;28;20394;-66
2022/08/02 00:15:14;;;;;;;4.13;1.88;;;19.10;99.90;;;;;;4974034;28;20034;-67
2022/08/02 00:17:42;;;;;;;5.63;1.80;;;19.00;99.90;;;;;;4972309;28;20070;-69
2022/08/02 00:20:10;;;;;;;7.60;2.55;;;19.00;99.90;;;;;;4975798;28;20115;-69
2022/08/02 00:22:37;;;;;;;3.25;2.08;;;19.00;99.90;;;;;;4975488;28;20404;-71
2022/08/02 00:25:05;;;;;;;3.90;2.25;;;18.90;99.90;;;;;;4974868;28;20477;-67
2022/08/02 00:27:32;;;;;;;9.32;2.47;;;18.90;99.90;;;;;;4979005;28;20093;-65
2022/08/02 00:29:59;;;;;;;2.13;1.92;;;18.90;99.90;;;;;;4971328;28;20154;-65
2022/08/02 00:32:26;;;;;;;2.58;2.28;;;18.90;99.90;;;;;;5001269;28;20043;-65
2022/08/02 00:34:53;;;;;;;3.65;1.77;;;18.80;99.90;;;;;;4970835;28;20161;-72
2022/08/02 00:37:20;;;;;;;2.92;1.90;;;18.80;99.90;;;;;;4975425;28;20383;-66
2022/08/02 00:39:47;;;;;;;3.30;1.67;;;18.80;99.90;;;;;;4969389;28;20067;-68
2022/08/02 00:42:14;;;;;;;2.40;2.20;;;18.80;99.90;;;;;;4972539;28;20817;-65
2022/08/02 00:44:41;;;;;;;3.92;2.25;;;18.80;99.90;;;;;;4968603;28;20089;-69
2022/08/02 00:47:08;;;;;;;2.10;1.60;;;18.70;99.90;;;;;;4974937;28;20567;-68
2022/08/02 00:49:36;;;;;;;4.97;1.88;;;18.70;99.90;;;;;;4972490;28;20205;-69
2022/08/02 00:52:03;;;;;;;2.03;1.83;;;18.70;99.90;;;;;;4977593;28;20097;-71
2022/08/02 00:54:31;;;;;;;5.25;1.50;;;18.70;99.90;;;;;;4977649;28;20082;-69
2022/08/02 00:56:57;;;;;;;4.68;2.08;;;18.70;99.90;;;;;;4974355;28;20060;-66
2022/08/02 00:59:24;;;;;;;3.35;2.03;;;18.60;99.90;;;;;;4977660;28;20197;-67
2022/08/02 01:01:52;;;;;;;1.77;1.55;;;18.60;99.90;;;;;;5001774;28;20046;-67
2022/08/02 01:04:22;;;;;;;1.45;1.30;;;18.60;99.90;;;;;;4996666;28;20412;-72
2022/08/02 01:07:04;;;;;;;3.85;1.90;;;18.60;99.90;;;;;;5002032;28;20136;-65
2022/08/02 01:09:44;;;;;;;5.10;2.38;;;18.50;99.90;;;;;;4975208;28;20053;-66
2022/08/02 01:12:11;;;;;;;5.72;2.40;;;18.50;99.90;;;;;;4982215;28;20457;-67
2022/08/02 01:14:41;;;;;;;3.78;1.70;;;18.40;99.90;;;;;;4976608;28;20686;-66
2022/08/02 01:17:29;;;;;;;3.25;1.27;;;18.40;99.90;;;;;;4977853;28;20046;-75
2022/08/02 01:20:11;;;;;;;2.22;2.08;;;18.40;99.90;;;;;;4978990;28;20058;-67
2022/08/02 01:22:41;;;;;;;2.13;1.77;;;18.40;99.90;;;;;;4981686;28;20058;-69
2022/08/02 01:25:36;;;;;;;1.75;1.45;;;18.40;99.90;;;;;;4978431;28;20047;-73
2022/08/02 01:28:38;;;;;;;4.85;1.85;;;18.40;99.90;;;;;;4984269;28;20078;-66
2022/08/02 01:31:20;;;;;;;2.47;1.45;;;18.30;99.90;;;;;;4965120;28;20050;-67
2022/08/02 01:33:55;;;;;;;1.73;1.45;;;18.30;99.90;;;;;;4996355;28;20133;-65
2022/08/02 01:36:26;;;;;;;4.32;1.48;;;18.20;99.90;;;;;;4995661;28;20062;-69
2022/08/02 01:38:54;;;;;;;2.17;1.77;;;18.20;99.90;;;;;;4994508;28;20049;-66
2022/08/02 01:41:25;;;;;;;4.63;1.20;;;18.10;99.90;;;;;;4995392;28;20140;-66
2022/08/02 01:43:56;;;;;;;2.88;2.13;;;18.10;99.90;;;;;;4997974;28;20130;-68
2022/08/02 01:46:26;;;;;;;2.63;1.60;;;18.10;99.90;;;;;;5001536;28;20038;-65
2022/08/02 01:48:56;;;;;;;2.97;2.10;;;18.00;99.90;;;;;;5000188;28;20155;-66
2022/08/02 01:54:16;;;;;;;1.63;1.50;;;18.00;99.90;;;;;;4999955;28;20831;-65
2022/08/02 01:56:44;;;;;;;2.95;1.88;;;18.00;99.90;;;;;;4996483;28;20081;-67
2022/08/02 01:59:15;;;;;;;4.15;1.55;;;18.00;99.90;;;;;;4988189;28;20124;-72
2022/08/02 02:01:44;;;;;;;2.00;1.50;;;18.00;99.90;;;;;;4990383;28;20093;-66
2022/08/02 02:04:14;;;;;;;1.67;1.40;;;17.90;99.90;;;;;;4996114;28;20615;-66
2022/08/02 02:06:43;;;;;;;5.38;1.95;;;17.90;99.90;;;;;;5003433;28;20041;-65
2022/08/02 02:09:13;;;;;;;4.05;1.77;;;17.80;99.90;;;;;;4999347;28;20121;-69
2022/08/02 02:11:43;;;;;;;5.10;1.77;;;17.80;99.90;;;;;;5000747;28;20058;-68
2022/08/02 02:14:32;;;;;;;3.13;1.73;;;17.70;99.90;;;;;;4995855;28;20139;-65
2022/08/02 02:16:59;;;;;;;4.80;2.13;;;17.70;99.90;;;;;;5004196;28;20153;-69
2022/08/02 02:19:28;;;;;;;2.35;1.50;;;17.60;99.90;;;;;;5000329;28;20054;-65
2022/08/02 02:21:55;;;;;;;1.92;1.45;;;17.60;99.90;;;;;;5000367;28;20416;-69
2022/08/02 02:24:23;;;;;;;3.42;1.48;;;17.50;99.90;;;;;;5000599;28;20044;-69
2022/08/02 02:26:50;;;;;;;2.53;2.05;;;17.50;99.90;;;;;;4998745;28;20046;-65
2022/08/02 02:29:22;;;;;;;3.03;1.30;;;17.50;99.90;;;;;;4997290;28;20104;-69
2022/08/02 02:31:52;;;;;;;2.42;2.22;;;17.50;99.90;;;;;;5000232;28;20069;-67
2022/08/02 02:34:29;;;;;;;1.45;1.35;;;17.50;99.90;;;;;;5005209;28;20065;-65
2022/08/02 02:37:03;;;;;;;2.10;1.58;;;17.40;99.90;;;;;;5001079;28;20414;-70
2022/08/02 02:39:32;;;;;;;1.98;1.50;;;17.40;99.90;;;;;;4996290;28;20669;-65
2022/08/02 02:42:02;;;;;;;3.58;2.00;;;17.40;99.90;;;;;;4997007;28;20108;-69
2022/08/02 02:44:30;;;;;;;7.57;3.03;;;17.40;99.90;;;;;;4997965;28;20112;-71
2022/08/02 02:46:59;;;;;;;2.97;1.55;;;17.40;99.90;;;;;;5001560;28;20050;-68
2022/08/02 02:49:30;;;;;;;3.90;2.90;;;17.40;99.90;;;;;;4994702;28;20074;-65
2022/08/02 02:51:58;;;;;;;3.35;1.65;;;17.40;99.90;;;;;;4998990;28;20049;-66
2022/08/02 02:54:26;;;;;;;1.58;1.45;;;17.40;99.90;;;;;;5000505;28;20070;-67
2022/08/02 02:57:03;;;;;;;4.85;2.38;;;17.30;99.90;;;;;;4999376;28;20038;-65
2022/08/02 02:59:31;;;;;;;2.65;2.00;;;17.30;99.90;;;;;;5000245;28;20103;-65
2022/08/02 03:01:59;;;;;;;2.25;1.83;;;17.30;99.90;;;;;;5000094;28;20099;-71
2022/08/02 03:04:30;;;;;;;2.65;1.83;;;17.30;99.90;;;;;;4999483;28;20432;-66
2022/08/02 03:07:17;;;;;;;5.70;2.45;;;17.30;99.90;;;;;;4996361;28;20050;-65
2022/08/02 03:09:44;;;;;;;2.45;1.88;;;17.30;99.90;;;;;;4998510;28;20115;-66
2022/08/02 03:12:19;;;;;;;2.03;1.80;;;17.30;99.90;;;;;;5001095;28;20468;-70
2022/08/02 03:14:46;;;;;;;2.28;1.60;;;17.20;99.90;;;;;;4999058;28;20108;-71
2022/08/02 03:17:15;;;;;;;2.42;1.80;;;17.20;99.90;;;;;;4998788;28;20133;-66
2022/08/02 03:19:43;;;;;;;2.42;2.22;;;17.20;99.90;;;;;;4997358;28;20034;-65
2022/08/02 03:22:10;;;;;;;2.95;1.63;;;17.20;99.90;;;;;;4998762;28;20393;-68
2022/08/02 03:24:37;;;;;;;4.13;2.65;;;17.20;99.90;;;;;;5000196;28;20168;-72
2022/08/02 03:27:04;;;;;;;2.75;2.55;;;17.20;99.90;;;;;;5000093;28;20093;-65
2022/08/02 03:29:31;;;;;;;2.00;1.80;;;17.20;99.90;;;;;;4998817;28;20046;-70
2022/08/02 03:32:00;;;;;;;4.70;2.22;;;17.20;99.90;;;;;;4999484;28;20797;-64
2022/08/02 03:34:28;;;;;;;3.72;2.15;;;17.20;99.90;;;;;;4994062;28;20070;-73
2022/08/02 03:36:56;;;;;;;2.70;2.50;;;17.20;99.90;;;;;;5000971;28;20073;-67
2022/08/02 03:39:24;;;;;;;2.28;2.10;;;17.20;99.90;;;;;;4992873;28;20120;-66
2022/08/02 03:41:53;;;;;;;3.53;2.05;;;17.20;99.90;;;;;;4997613;28;20069;-64
2022/08/02 03:44:21;;;;;;;4.65;2.75;;;17.20;99.90;;;;;;5001016;28;20207;-65
2022/08/02 03:46:48;;;;;;;2.35;1.90;;;17.20;99.90;;;;;;4998442;28;20479;-69
2022/08/02 03:49:17;;;;;;;7.57;2.47;;;17.20;99.90;;;;;;4998959;28;20073;-65
2022/08/02 03:51:45;;;;;;;4.30;2.15;;;17.20;99.90;;;;;;5001024;28;21386;-68
2022/08/02 03:54:13;;;;;;;3.78;2.13;;;17.20;99.90;;;;;;5002690;28;20539;-69
2022/08/02 03:56:40;;;;;;;3.70;1.92;;;17.20;99.90;;;;;;5002472;28;20079;-73
2022/08/02 03:59:09;;;;;;;3.45;2.53;;;17.20;99.90;;;;;;4993097;28;20140;-69
2022/08/02 04:01:37;;;;;;;2.97;2.72;;;17.20;99.90;;;;;;5002851;28;20045;-66
2022/08/02 04:04:05;;;;;;;5.88;2.35;;;17.20;99.90;;;;;;4998251;28;20069;-70
2022/08/02 04:06:33;;;;;;;2.53;1.58;;;17.10;99.90;;;;;;4997459;28;20386;-66
2022/08/02 04:09:00;;;;;;;3.88;2.30;;;17.10;99.90;;;;;;5003814;28;20089;-65
2022/08/02 04:11:30;;;;;;;3.00;1.88;;;17.10;99.90;;;;;;5000176;28;20112;-67
2022/08/02 04:14:06;;;;;;;4.97;2.92;;;17.10;99.90;;;;;;5002082;28;20049;-70
2022/08/02 04:16:33;;;;;;;2.17;1.98;;;17.10;99.90;;;;;;5000606;28;20061;-66
2022/08/02 04:19:02;;;;;;;2.08;1.95;;;17.20;99.90;;;;;;5003180;28;21646;-69
2022/08/02 04:21:35;;;;;;;3.22;2.00;;;17.20;99.90;;;;;;4999475;28;20129;-66
2022/08/02 04:24:24;;;;;;;2.05;1.70;;;17.30;99.90;;;;;;5000620;28;20475;-67
2022/08/02 04:26:56;;;;;;;2.30;2.10;;;17.30;99.90;;;;;;4999393;28;20566;-65
2022/08/02 04:29:33;;;;;;;2.67;2.20;;;17.30;99.90;;;;;;4996656;28;20053;-65
2022/08/02 04:32:02;;;;;;;3.80;2.05;;;17.40;99.90;;;;;;5000898;28;20412;-67
2022/08/02 04:34:29;;;;;;;2.42;1.52;;;17.40;99.90;;;;;;4996280;28;20116;-66
2022/08/02 04:36:57;;;;;;;2.22;2.13;;;17.40;99.90;;;;;;5000512;28;20136;-66
2022/08/02 04:39:25;;;;;;;2.80;1.92;;;17.40;99.90;;;;;;5001142;28;20096;-65
2022/08/02 04:41:52;;;;;;;6.07;1.92;;;17.30;99.90;;;;;;4996981;28;20073;-72
2022/08/02 04:44:24;;;;;;;8.32;2.28;;;17.40;99.90;;;;;;4996446;28;20038;-69
2022/08/02 04:46:51;;;;;;;2.10;2.00;;;17.40;99.90;;;;;;5000039;28;20144;-70
2022/08/02 04:49:18;;;;;;;2.25;2.05;;;17.30;99.90;;;;;;4996689;28;20038;-72
2022/08/02 04:51:45;;;;;;;2.47;2.28;;;17.30;99.90;;;;;;4999740;28;20053;-66
2022/08/02 04:54:12;;;;;;;5.28;2.13;;;17.30;99.90;;;;;;4998777;28;20042;-65
2022/08/02 04:56:40;;;;;;;2.70;2.50;;;17.20;99.90;;;;;;4999707;28;20479;-65
2022/08/02 04:59:07;;;;;;;2.85;2.65;;;17.20;99.90;;;;;;4995459;28;20050;-65
2022/08/02 05:01:34;;;;;;;3.08;2.13;;;17.20;99.90;;;;;;4999846;28;20112;-67
2022/08/02 05:04:01;;;;;;;2.15;2.00;;;17.20;99.90;;;;;;4993402;28;20046;-68
2022/08/02 05:06:28;;;;;;;2.42;2.13;;;17.20;99.90;;;;;;4983149;28;20077;-69
2022/08/02 05:08:55;;;;;;;2.45;2.25;;;17.30;99.90;;;;;;4985146;28;20054;-66
2022/08/02 05:11:23;;;;;;;4.05;2.92;;;17.30;99.90;;;;;;4980334;28;20077;-69
2022/08/02 05:14:05;;;;;;;3.88;2.40;;;17.30;99.90;;;;;;4977679;28;20611;-65
2022/08/02 05:16:32;;;;;;;2.55;2.35;;;17.40;99.90;;;;;;4979957;28;20051;-65
2022/08/02 05:19:00;;;;;;;2.38;2.13;;;17.40;99.90;;;;;;4978579;28;20480;-70
2022/08/02 05:21:28;;;;;;;3.38;2.58;;;17.40;99.90;;;;;;4976159;28;20041;-69
2022/08/02 05:23:55;;;;;;;2.13;1.92;;;17.40;99.90;;;;;;4978431;28;20061;-69
2022/08/02 05:26:22;;;;;;;5.90;3.80;;;17.40;99.90;;;;;;4973690;28;20042;-67
2022/08/02 05:28:49;;;;;;;4.60;1.73;;;17.50;99.90;;;;;;4975845;28;20113;-68
2022/08/02 05:31:16;;;;;;;1.70;1.60;;;17.50;99.90;;;;;;4974261;28;20054;-68
2022/08/02 05:33:43;;;;;;;2.97;2.13;;;17.50;99.90;;;;;;4979756;28;20558;-73
2022/08/02 05:36:10;;;;;;;4.60;2.38;;;17.60;99.90;;;;;;4975019;28;20066;-69
2022/08/02 05:38:37;;;;;;;4.93;1.70;;;17.60;99.90;;;;;;4973895;28;20066;-67
2022/08/02 05:41:04;;;;;;;2.47;2.28;;;17.70;99.90;;;;;;4975391;28;20043;-68
2022/08/02 05:43:31;;;;;;;2.33;2.13;;;17.70;99.90;;;;;;4972084;28;20528;-65
2022/08/02 05:45:59;;;;;;;2.78;2.45;;;17.70;99.90;;;;;;4971936;28;20204;-68
2022/08/02 05:48:26;;;;;;;2.83;2.55;;;17.70;99.90;;;;;;4971738;28;20381;-65
2022/08/02 05:51:26;;;;;;;3.63;2.13;;;17.80;99.90;;;;;;4969714;28;20138;-68
2022/08/02 05:53:59;;;;;;;1.80;1.70;;;17.80;99.90;;;;;;5000773;28;20042;-66
2022/08/02 05:56:37;;;;;;;2.63;2.30;;;17.70;99.90;;;;;;5000808;28;20037;-65
2022/08/02 05:59:16;;;;;;;4.72;2.03;;;17.70;99.90;;;;;;4998396;28;20133;-64
2022/08/02 06:01:48;;;;;;;3.47;1.95;;;17.70;99.90;;;;;;4995735;28;20453;-67
2022/08/02 06:04:25;;;;;;;2.20;2.00;;;17.80;99.90;;;;;;4973056;28;20090;-65
2022/08/02 06:06:55;;;;;;;4.05;1.83;;;17.90;99.90;;;;;;4972400;28;20072;-65
2022/08/02 06:09:25;;;;;;;3.38;1.60;;;17.90;99.90;;;;;;4974347;28;20377;-73
2022/08/02 06:11:57;;;;;;;5.90;2.80;;;17.80;99.90;;;;;;4967301;28;20069;-67
2022/08/02 06:14:31;;;;;;;4.72;2.35;;;17.90;99.90;;;;;;4973146;28;20062;-73
2022/08/02 06:17:03;;;;;;;4.22;2.13;;;18.10;99.90;;;;;;4970446;28;20046;-70
2022/08/02 06:19:31;;;;;;;4.72;2.60;;;18.20;99.90;;;;;;4978715;28;20129;-67
2022/08/02 06:22:18;;;;;;;2.00;1.80;;;18.20;99.90;;;;;;4972070;28;20735;-68
2022/08/02 06:25:06;;;;;;;13.15;3.60;;;18.00;99.90;;;;;;4968909;28;20498;-71
2022/08/02 06:27:53;;;;;;;3.10;1.58;;;18.00;99.90;;;;;;4967807;28;20456;-71
2022/08/02 06:30:21;;;;;;;2.42;1.73;;;18.00;99.90;;;;;;4971121;28;20110;-72
2022/08/02 06:32:50;;;;;;;2.78;1.92;;;18.00;99.90;;;;;;4972541;28;20154;-69
2022/08/02 06:35:17;;;;;;;1.87;1.77;;;18.10;99.90;;;;;;4968777;28;20069;-70
2022/08/02 06:37:52;;;;;;;2.22;2.03;;;18.10;99.90;;;;;;4974835;28;20362;-69
2022/08/02 06:40:57;;;;;;;5.18;2.65;;;18.00;99.90;;;;;;4970494;28;20042;-66
2022/08/02 06:43:35;;;;;;;3.80;2.00;;;18.10;99.90;;;;;;4964760;28;20128;-67
2022/08/02 06:46:05;;;;;;;2.55;2.35;;;18.20;99.90;;;;;;4966992;28;20134;-72
2022/08/02 06:48:53;;;;;;;3.05;1.85;;;18.10;99.90;;;;;;5004988;28;20376;-69
2022/08/02 06:51:20;;;;;;;2.67;2.10;;;18.20;99.90;;;;;;4969585;28;20051;-71
2022/08/02 06:53:48;;;;;;;2.75;1.98;;;18.30;99.90;;;;;;4971629;28;20078;-65
2022/08/02 06:56:15;;;;;;;5.20;2.40;;;18.40;99.90;;;;;;4970003;28;20201;-66
2022/08/02 06:58:41;;;;;;;5.72;2.95;;;18.20;99.90;;;;;;4971229;28;20042;-73
2022/08/02 07:01:08;;;;;;;2.88;2.17;;;18.30;99.90;;;;;;4971916;28;20393;-70
2022/08/02 07:03:36;;;;;;;3.05;1.88;;;18.30;99.90;;;;;;4983868;28;20073;-69
2022/08/02 07:06:04;;;;;;;4.15;3.35;;;18.30;99.90;;;;;;4999558;28;20187;-70
2022/08/02 07:08:32;;;;;;;4.65;2.00;;;18.20;99.90;;;;;;5001036;28;20447;-67
2022/08/02 07:11:00;;;;;;;5.18;2.45;;;18.20;99.90;;;;;;4999117;28;20149;-68
2022/08/02 07:13:27;;;;;;;2.90;2.00;;;18.20;99.90;;;;;;4977587;28;20391;-72
2022/08/02 07:15:55;;;;;;;2.28;2.03;;;18.20;99.90;;;;;;4977601;28;20046;-70
2022/08/02 07:18:23;;;;;;;2.33;1.95;;;18.20;99.90;;;;;;4978249;28;20053;-72
2022/08/02 07:20:51;;;;;;;3.63;2.25;;;18.30;99.90;;;;;;4977422;28;20077;-73
2022/08/02 07:23:18;;;;;;;2.28;2.08;;;18.20;99.90;;;;;;4967012;28;20531;-69
2022/08/02 07:25:45;;;;;;;3.67;2.20;;;18.10;99.90;;;;;;4968075;28;20254;-66
2022/08/02 07:28:29;;;;;;;3.17;2.28;;;18.20;99.90;;;;;;4973974;28;20153;-66
2022/08/02 07:30:56;;;;;;;2.97;2.05;;;18.20;99.90;;;;;;4971765;28;20122;-66
2022/08/02 07:33:23;;;;;;;5.20;3.85;;;18.30;99.90;;;;;;4973816;28;20153;-72
2022/08/02 07:36:07;;;;;;;2.60;2.30;;;18.30;99.90;;;;;;4974846;28;20130;-69
2022/08/02 07:38:42;;;;;;;3.90;1.80;;;18.40;99.90;;;;;;4971314;28;20356;-72
2022/08/02 07:41:11;;;;;;;2.03;1.92;;;18.40;99.90;;;;;;4969551;28;20046;-71
2022/08/02 07:43:38;;;;;;;3.75;2.45;;;18.40;99.90;;;;;;4976261;28;20072;-70
2022/08/02 07:46:05;;;;;;;3.45;1.85;;;18.50;99.90;;;;;;4968075;28;20051;-70
2022/08/02 07:48:32;;;;;;;3.95;1.90;;;18.40;99.90;;;;;;4970441;28;20108;-65
2022/08/02 07:50:59;;;;;;;2.35;1.77;;;18.40;99.90;;;;;;4966213;28;20051;-71
2022/08/02 07:53:26;;;;;;;4.10;2.00;;;18.60;99.90;;;;;;4973169;28;20112;-66
2022/08/02 07:56:13;;;;;;;2.13;1.50;;;18.60;99.90;;;;;;4970759;28;20515;-71
2022/08/02 07:58:42;;;;;;;2.03;1.80;;;18.60;99.90;;;;;;4973232;28;20046;-72
2022/08/02 08:01:09;;;;;;;1.90;1.80;;;18.60;99.90;;;;;;4969362;28;20070;-68
2022/08/02 08:03:36;;;;;;;3.33;2.15;;;18.60;99.90;;;;;;4969655;28;20069;-66
2022/08/02 08:06:03;;;;;;;4.75;2.00;;;18.60;99.90;;;;;;4970958;28;20096;-70
2022/08/02 08:08:30;;;;;;;2.33;2.13;;;18.50;99.90;;;;;;4969676;28;20148;-65
2022/08/02 08:10:57;;;;;;;5.93;2.45;;;18.50;99.90;;;;;;4969843;28;20389;-72
2022/08/02 08:13:24;;;;;;;4.40;2.50;;;18.60;99.90;;;;;;4975622;28;20910;-67
2022/08/02 08:15:51;;;;;;;3.13;2.60;;;18.60;99.90;;;;;;4972567;28;20689;-66
2022/08/02 08:18:20;;;;;;;3.60;2.63;;;18.70;99.90;;;;;;4970151;28;20042;-68
2022/08/02 08:20:46;;;;;;;1.67;1.58;;;18.70;99.90;;;;;;4976556;28;20103;-66
2022/08/02 08:23:13;;;;;;;4.03;1.88;;;18.80;99.90;;;;;;4972663;28;21310;-68
2022/08/02 08:25:41;;;;;;;2.45;2.00;;;18.80;99.90;;;;;;4971785;28;20070;-72
2022/08/02 08:28:08;;;;;;;3.50;2.33;;;18.90;99.90;;;;;;4972800;28;20073;-72
2022/08/02 08:30:35;;;;;;;3.55;2.05;;;18.90;99.90;;;;;;4975956;28;20074;-65
2022/08/02 08:33:03;;;;;;;2.60;2.40;;;18.90;99.90;;;;;;4977759;28;20431;-71
2022/08/02 08:35:30;;;;;;;4.10;2.78;;;18.60;99.90;;;;;;4972304;28;20073;-69
2022/08/02 08:37:57;;;;;;;1.80;1.70;;;18.70;99.90;;;;;;4977136;28;20129;-66
2022/08/02 08:40:24;;;;;;;2.28;1.60;;;18.90;99.90;;;;;;4975320;28;20077;-70
2022/08/02 08:42:51;;;;;;;2.83;2.15;;;18.90;99.90;;;;;;4973409;28;20421;-66
2022/08/02 08:45:18;;;;;;;3.42;2.22;;;18.90;99.90;;;;;;4974559;28;20516;-68
2022/08/02 08:47:51;;;;;;;4.30;2.25;;;18.90;99.90;;;;;;4976908;28;20166;-66
2022/08/02 08:50:22;;;;;;;5.90;2.38;;;18.90;99.90;;;;;;4972704;28;20157;-68
2022/08/02 08:53:04;;;;;;;3.78;2.13;;;19.00;99.90;;;;;;4976786;28;20057;-70
2022/08/02 08:55:33;;;;;;;2.20;2.03;;;18.90;99.90;;;;;;4999274;28;20097;-66
2022/08/02 08:58:03;;;;;;;2.45;2.25;;;18.90;99.90;;;;;;4994600;28;20081;-66
2022/08/02 09:00:31;;;;;;;2.50;2.30;;;18.90;99.90;;;;;;4986721;28;20045;-67
2022/08/02 09:03:04;;;;;;;2.38;2.15;;;18.90;99.90;;;;;;4978941;28;20069;-65
2022/08/02 09:05:34;;;;;;;6.43;2.13;;;19.00;99.90;;;;;;4999199;28;20112;-67
2022/08/02 09:08:01;;;;;;;2.80;2.03;;;19.10;99.90;;;;;;4988406;28;20156;-72
2022/08/02 09:10:36;;;;;;;1.98;1.77;;;19.00;99.90;;;;;;4974668;28;20054;-70
2022/08/02 09:13:21;;;;;;;2.28;2.13;;;19.10;99.90;;;;;;4982577;28;20163;-66
2022/08/02 09:16:07;;;;;;;9.60;2.42;;;19.10;99.90;;;;;;4995100;28;20563;-68
2022/08/02 09:18:43;;;;;;;2.47;2.00;;;19.00;99.90;;;;;;5002881;28;20043;-68
2022/08/02 09:21:12;;;;;;;3.55;1.88;;;19.00;99.90;;;;;;4997736;28;20045;-70
2022/08/02 09:23:44;;;;;;;6.38;4.93;;;19.10;99.90;;;;;;4998301;28;20054;-73
2022/08/02 09:26:14;;;;;;;3.00;2.72;;;19.10;99.90;;;;;;5003034;28;20368;-65
2022/08/02 09:28:45;;;;;;;2.40;2.10;;;19.10;99.90;;;;;;5000511;28;20058;-68
2022/08/02 09:31:23;;;;;;;2.00;1.80;;;19.20;99.90;;;;;;4977100;28;20371;-70
2022/08/02 09:33:55;;;;;;;3.08;2.47;;;19.20;99.90;;;;;;4978882;28;20136;-69
2022/08/02 09:36:23;;;;;;;1.60;1.50;;;19.20;99.90;;;;;;4972239;28;20149;-72
2022/08/02 09:39:03;;;;;;;3.78;1.95;;;19.20;99.90;;;;;;4978617;28;20057;-70
2022/08/02 09:41:35;;;;;;;3.78;2.55;;;19.30;99.90;;;;;;4975602;28;20406;-67
2022/08/02 09:44:05;;;;;;;2.90;2.30;;;19.40;99.90;;;;;;4968777;28;20046;-66
2022/08/02 09:46:38;;;;;;;3.00;2.03;;;19.30;99.90;;;;;;4968221;28;20135;-65
2022/08/02 09:49:07;;;;;;;2.60;2.40;;;19.30;99.90;;;;;;4969877;28;20149;-67
2022/08/02 09:51:49;;;;;;;5.30;2.17;;;19.50;99.90;;;;;;4988067;28;20419;-67
2022/08/02 09:54:31;;;;;;;2.40;2.10;;;19.50;99.90;;;;;;4998282;28;20070;-73
2022/08/02 09:57:00;;;;;;;10.02;3.28;;;19.70;99.90;;;;;;5005058;28;20052;-68
2022/08/02 09:59:28;;;;;;;6.55;2.03;;;19.60;99.90;;;;;;4993981;28;20049;-66
2022/08/02 10:01:57;;;;;;;4.95;2.08;;;19.80;99.90;;;;;;4992651;28;20108;-66
2022/08/02 10:04:31;;;;;;;2.63;2.42;;;19.90;99.90;;;;;;4996398;28;20129;-68
2022/08/02 10:07:19;;;;;;;2.22;2.03;;;19.80;99.90;;;;;;5000699;28;20048;-68
2022/08/02 10:09:49;;;;;;;3.45;2.03;;;19.80;99.90;;;;;;4995935;28;20641;-65
2022/08/02 10:12:17;;;;;;;2.00;1.90;;;19.70;99.90;;;;;;4996518;28;20132;-65
2022/08/02 10:14:44;;;;;;;4.45;3.45;;;19.90;99.90;;;;;;5002066;28;20046;-70
2022/08/02 10:17:12;;;;;;;4.40;2.95;;;19.70;99.90;;;;;;4993888;28;20066;-68
2022/08/02 10:19:39;;;;;;;1.73;1.63;;;19.60;99.90;;;;;;5000910;28;20054;-68
2022/08/02 10:22:26;;;;;;;2.55;2.15;;;19.70;99.90;;;;;;4999122;28;20128;-66
2022/08/02 10:24:54;;;;;;;2.22;1.95;;;19.70;99.90;;;;;;5000360;28;20075;-73
2022/08/02 10:27:24;;;;;;;2.55;1.73;;;20.00;99.90;;;;;;4998524;28;20383;-69
2022/08/02 10:29:54;;;;;;;4.22;2.58;;;20.30;99.90;;;;;;5000040;28;20050;-73
2022/08/02 10:32:37;;;;;;;;;;;20.20;99.90;;;;;;4997145;28;20476;-67
2022/08/02 10:35:12;;;;;;;2.15;1.80;;;20.20;99.90;;;;;;4996114;28;19930;-69
2022/08/02 10:38:02;;;;;;;2.25;2.05;;;20.10;99.90;;;;;;4984382;28;20476;-70
2022/08/02 10:40:45;;;;;;;2.83;2.10;;;20.10;99.90;;;;;;4992875;28;20113;-74
2022/08/02 10:43:32;;;;;;;2.03;1.92;;;20.10;99.90;;;;;;4998936;28;20528;-67
2022/08/02 10:46:32;;;;;;;3.83;2.42;;;20.10;99.90;;;;;;4990931;28;20327;-68
2022/08/02 10:49:06;;;;;;;2.50;1.80;;;20.00;99.90;;;;;;4983159;28;20038;-70
2022/08/02 10:51:54;;;;;;;2.25;1.98;;;19.80;99.90;;;;;;4975253;28;20042;-69
2022/08/02 10:54:39;;;;;;;2.25;2.10;;;19.60;99.90;;;;;;4971232;28;20046;-66
2022/08/02 10:57:30;;;;;;;3.08;2.20;;;19.50;99.90;;;;;;4971120;28;20066;-66
2022/08/02 11:00:13;;;;;;;1.98;1.85;;;19.60;99.90;;;;;;4967877;28;20525;-66
2022/08/02 11:02:47;;;;;;;2.55;2.20;;;19.50;99.90;;;;;;4978745;28;20074;-65
2022/08/02 11:05:30;;;;;;;2.25;2.05;;;19.40;99.90;;;;;;4979579;28;20169;-69
2022/08/02 11:08:20;;;;;;;4.10;2.40;;;19.20;99.90;;;;;;4986620;28;20050;-68
2022/08/02 11:10:47;;;;;;;3.13;2.33;;;19.30;99.90;;;;;;4969310;28;20117;-68
2022/08/02 11:13:16;;;;;;;5.10;2.13;;;19.30;99.90;;;;;;4981255;28;20050;-69
2022/08/02 11:16:09;;;;;;;3.20;2.50;;;19.40;99.90;;;;;;4984149;28;20404;-67
2022/08/02 11:18:49;;;;;;;3.22;2.10;;;19.20;99.90;;;;;;4972990;28;20043;-67
2022/08/02 11:21:29;;;;;;;2.88;2.60;;;19.40;99.90;;;;;;4972798;28;20055;-69
2022/08/02 11:24:27;;;;;;;2.53;2.33;;;19.50;99.90;;;;;;4976242;28;20050;-68
2022/08/02 11:26:54;;;;;;;5.10;2.28;;;19.80;99.90;;;;;;4969919;28;20043;-67
2022/08/02 11:29:30;;;;;;;4.07;3.00;;;19.70;99.90;;;;;;4974064;28;20124;-66
2022/08/02 11:31:57;;;;;;;4.13;2.17;;;19.90;99.90;;;;;;4968433;28;20054;-68
2022/08/02 11:34:25;;;;;;;2.10;1.77;;;20.10;99.90;;;;;;4979581;28;20132;-65
2022/08/02 11:37:04;;;;;;;3.80;3.37;;;20.30;99.90;;;;;;4975858;28;20120;-72
2022/08/02 11:39:30;;;;;;;2.33;2.13;;;20.30;99.90;;;;;;4975255;28;20079;-65
2022/08/02 11:41:59;;;;;;;3.25;2.10;;;20.30;99.90;;;;;;4970747;28;20564;-66
2022/08/02 11:44:28;;;;;;;2.72;2.28;;;20.50;99.90;;;;;;4985618;28;20109;-66
2022/08/02 11:47:01;;;;;;;2.95;2.75;;;20.40;99.90;;;;;;4978509;28;20558;-66
2022/08/02 11:49:28;;;;;;;4.78;2.20;;;20.30;99.90;;;;;;4975470;28;20100;-65
2022/08/02 11:52:07;;;;;;;2.00;1.90;;;20.10;99.90;;;;;;4978164;28;20053;-67
2022/08/02 11:54:41;;;;;;;3.47;2.10;;;20.20;99.90;;;;;;4972408;28;20564;-66
2022/08/02 11:57:14;;;;;;;3.15;2.25;;;20.20;99.90;;;;;;4972212;28;20046;-69
2022/08/02 11:59:52;;;;;;;2.72;2.53;;;20.30;99.90;;;;;;4975389;28;20046;-67
2022/08/02 12:02:21;;;;;;;3.00;2.00;;;20.10;99.90;;;;;;4972657;28;20057;-67
2022/08/02 12:04:58;;;;;;;2.58;1.83;;;20.10;99.90;;;;;;4966850;28;20061;-68
2022/08/02 12:07:31;;;;;;;3.85;2.10;;;20.20;99.90;;;;;;4969657;28;20181;-65
2022/08/02 12:10:07;;;;;;;3.13;2.65;;;20.20;99.90;;;;;;4975320;28;20043;-66
2022/08/02 12:12:51;;;;;;;2.75;2.30;;;20.00;99.90;;;;;;4982030;28;20201;-67
2022/08/02 12:15:29;;;;;;;2.85;2.33;;;19.90;99.90;;;;;;4972991;28;20046;-66
2022/08/02 12:20:43;;;;;;;3.70;2.58;;;19.90;99.90;;;;;;4977759;28;20038;-68
2022/08/02 12:23:10;;;;;;;2.85;2.53;;;20.00;99.90;;;;;;4974203;28;20400;-67
2022/08/02 12:25:37;;;;;;;3.28;2.92;;;20.10;99.90;;;;;;4974778;28;20385;-73
2022/08/02 12:28:24;;;;;;;4.38;2.72;;;20.20;99.90;;;;;;4974725;28;20169;-66
2022/08/02 12:30:59;;;;;;;3.97;2.67;;;20.30;99.90;;;;;;4976942;28;20453;-67
2022/08/02 12:33:29;;;;;;;4.20;2.85;;;20.50;99.90;;;;;;4982015;28;20470;-66
2022/08/02 12:35:55;;;;;;;4.50;2.35;;;20.60;99.90;;;;;;4981050;28;20050;-66
2022/08/02 12:38:22;;;;;;;2.60;2.40;;;20.70;99.90;;;;;;4977474;28;20070;-66
2022/08/02 12:40:49;;;;;;;6.13;2.30;;;20.60;99.90;;;;;;4971613;28;20114;-66
2022/08/02 12:43:19;;;;;;;3.35;2.83;;;20.80;99.90;;;;;;4968178;28;20585;-65
2022/08/02 12:45:50;;;;;;;3.20;3.00;;;20.80;99.90;;;;;;4972294;28;20804;-66
2022/08/02 12:48:30;;;;;;;2.53;2.20;;;20.60;99.90;;;;;;4976621;28;20346;-69
2022/08/02 12:51:28;;;;;;;4.13;2.35;;;20.50;99.90;;;;;;4973336;28;20488;-68
2022/08/02 12:54:21;;;;;;;2.45;2.25;;;20.70;99.90;;;;;;4991496;28;20046;-67
2022/08/02 12:57:08;;;;;;;4.00;3.60;;;20.50;99.90;;;;;;4981036;28;20096;-68
2022/08/02 12:59:38;;;;;;;2.60;2.40;;;20.60;99.90;;;;;;4987366;28;20376;-68
2022/08/02 13:02:09;;;;;;;3.22;2.13;;;20.80;99.90;;;;;;4983497;28;20043;-67
2022/08/02 13:04:37;;;;;;;4.35;2.05;;;20.90;99.90;;;;;;4980238;28;20128;-68
2022/08/02 13:07:05;;;;;;;3.78;2.65;;;21.00;99.90;;;;;;4975059;28;20404;-71
2022/08/02 13:09:40;;;;;;;4.57;3.50;;;21.00;99.90;;;;;;4979552;28;20652;-69
2022/08/02 13:12:07;;;;;;;7.38;2.63;;;20.70;99.90;;;;;;4979742;28;20146;-68
2022/08/02 13:14:34;;;;;;;4.53;2.20;;;20.50;99.90;;;;;;4983005;28;20159;-66
2022/08/02 13:17:10;;;;;;;4.85;2.28;;;20.70;99.90;;;;;;4983356;28;20063;-72